sensor_id;sensor_type;location;lat;lon;timestamp;P1;durP1;ratioP1;P2;durP2;ratioP2
66374;SDS011;53173;52.176;5.314;2023-11-18T16:26:37;1.60;;;1.40;;
66374;SDS011;53173;52.176;5.314;2023-11-18T16:29:09;1.67;;;1.58;;
66374;SDS011;53173;52.176;5.314;2023-11-18T16:31:37;1.85;;;1.42;;
66374;SDS011;53173;52.176;5.314;2023-11-18T16:34:04;1.70;;;1.60;;
66374;SDS011;53173;52.176;5.314;2023-11-18T16:36:33;3.65;;;1.60;;
66374;SDS011;53173;52.176;5.314;2023-11-18T16:42:48;1.92;;;1.83;;
66374;SDS011;53173;52.176;5.314;2023-11-18T16:45:17;2.28;;;1.48;;
66374;SDS011;53173;52.176;5.314;2023-11-18T16:47:47;1.58;;;1.42;;
66374;SDS011;53173;52.176;5.314;2023-11-18T16:50:20;1.42;;;1.33;;
66374;SDS011;53173;52.176;5.314;2023-11-18T16:52:56;1.52;;;1.42;;
66374;SDS011;53173;52.176;5.314;2023-11-18T16:55:26;2.92;;;1.90;;
66374;SDS011;53173;52.176;5.314;2023-11-18T16:58:01;1.75;;;1.65;;
66374;SDS011;53173;52.176;5.314;2023-11-18T17:00:31;1.80;;;1.70;;
66374;SDS011;53173;52.176;5.314;2023-11-18T17:03:02;2.78;;;1.70;;
66374;SDS011;53173;52.176;5.314;2023-11-18T17:05:31;1.80;;;1.70;;
66374;SDS011;53173;52.176;5.314;2023-11-18T17:08:04;2.00;;;1.90;;
66374;SDS011;53173;52.176;5.314;2023-11-18T17:10:33;2.17;;;2.08;;
66374;SDS011;53173;52.176;5.314;2023-11-18T17:13:00;1.77;;;1.65;;
66374;SDS011;53173;52.176;5.314;2023-11-18T17:15:27;2.00;;;1.90;;
66374;SDS011;53173;52.176;5.314;2023-11-18T17:17:55;2.00;;;1.90;;
66374;SDS011;53173;52.176;5.314;2023-11-18T17:20:30;2.15;;;2.05;;
66374;SDS011;53173;52.176;5.314;2023-11-18T17:22:57;2.30;;;2.20;;
66374;SDS011;53173;52.176;5.314;2023-11-18T17:25:24;2.25;;;1.77;;
66374;SDS011;53173;52.176;5.314;2023-11-18T17:27:57;2.00;;;1.90;;
66374;SDS011;53173;52.176;5.314;2023-11-18T17:30:24;2.47;;;2.38;;
66374;SDS011;53173;52.176;5.314;2023-11-18T17:32:51;2.25;;;2.15;;
66374;SDS011;53173;52.176;5.314;2023-11-18T17:35:20;2.80;;;2.60;;
66374;SDS011;53173;52.176;5.314;2023-11-18T17:37:48;3.03;;;2.83;;
66374;SDS011;53173;52.176;5.314;2023-11-18T17:40:15;2.47;;;2.38;;
66374;SDS011;53173;52.176;5.314;2023-11-18T17:42:43;3.38;;;3.10;;
66374;SDS011;53173;52.176;5.314;2023-11-18T17:45:11;3.42;;;3.13;;
66374;SDS011;53173;52.176;5.314;2023-11-18T17:47:39;3.58;;;3.38;;
66374;SDS011;53173;52.176;5.314;2023-11-18T17:50:11;6.18;;;4.75;;
66374;SDS011;53173;52.176;5.314;2023-11-18T17:52:44;6.85;;;4.60;;
66374;SDS011;53173;52.176;5.314;2023-11-18T17:55:17;6.22;;;5.72;;
66374;SDS011;53173;52.176;5.314;2023-11-18T17:57:44;6.43;;;5.80;;
66374;SDS011;53173;52.176;5.314;2023-11-18T18:00:13;5.97;;;5.50;;
66374;SDS011;53173;52.176;5.314;2023-11-18T18:02:46;6.80;;;6.20;;
66374;SDS011;53173;52.176;5.314;2023-11-18T18:05:13;6.88;;;6.28;;
66374;SDS011;53173;52.176;5.314;2023-11-18T18:16:45;9.20;;;8.40;;
66374;SDS011;53173;52.176;5.314;2023-11-18T18:19:12;11.45;;;10.35;;
66374;SDS011;53173;52.176;5.314;2023-11-18T18:21:39;12.15;;;10.95;;
66374;SDS011;53173;52.176;5.314;2023-11-18T18:24:06;13.95;;;12.55;;
66374;SDS011;53173;52.176;5.314;2023-11-18T18:26:33;12.27;;;11.18;;
66374;SDS011;53173;52.176;5.314;2023-11-18T18:29:00;13.80;;;12.50;;
66374;SDS011;53173;52.176;5.314;2023-11-18T18:31:27;12.23;;;11.13;;
66374;SDS011;53173;52.176;5.314;2023-11-18T18:33:54;14.43;;;13.07;;
66374;SDS011;53173;52.176;5.314;2023-11-18T18:36:21;14.32;;;13.00;;
66374;SDS011;53173;52.176;5.314;2023-11-18T18:38:48;16.65;;;14.27;;
66374;SDS011;53173;52.176;5.314;2023-11-18T18:41:16;16.67;;;13.60;;
66374;SDS011;53173;52.176;5.314;2023-11-18T18:43:43;15.48;;;14.05;;
66374;SDS011;53173;52.176;5.314;2023-11-18T18:46:10;14.77;;;13.27;;
66374;SDS011;53173;52.176;5.314;2023-11-18T18:48:42;14.85;;;13.43;;
66374;SDS011;53173;52.176;5.314;2023-11-18T18:51:10;16.10;;;14.38;;
66374;SDS011;53173;52.176;5.314;2023-11-18T18:53:37;15.73;;;14.18;;
66374;SDS011;53173;52.176;5.314;2023-11-18T18:56:04;16.75;;;15.05;;
66374;SDS011;53173;52.176;5.314;2023-11-18T18:58:36;16.98;;;15.27;;
66374;SDS011;53173;52.176;5.314;2023-11-18T19:01:07;16.08;;;14.38;;
66374;SDS011;53173;52.176;5.314;2023-11-18T19:03:34;18.27;;;15.75;;
66374;SDS011;53173;52.176;5.314;2023-11-18T19:06:03;18.75;;;16.77;;
66374;SDS011;53173;52.176;5.314;2023-11-18T19:08:31;16.88;;;15.20;;
66374;SDS011;53173;52.176;5.314;2023-11-18T19:10:58;23.58;;;16.17;;
66374;SDS011;53173;52.176;5.314;2023-11-18T19:13:25;18.48;;;16.45;;
66374;SDS011;53173;52.176;5.314;2023-11-18T19:15:52;18.95;;;16.98;;
66374;SDS011;53173;52.176;5.314;2023-11-18T19:18:19;23.45;;;16.48;;
66374;SDS011;53173;52.176;5.314;2023-11-18T19:20:46;20.63;;;15.98;;
66374;SDS011;53173;52.176;5.314;2023-11-18T19:23:13;24.58;;;16.45;;
